sensor_id;sensor_type;location;lat;lon;timestamp;pressure;altitude;pressure_sealevel;temperature;humidity
37291;BME280;23175;-33.706;151.094;2023-04-01T00:01:53;99711.40;;;14.57;48.97
37291;BME280;23175;-33.706;151.094;2023-04-01T00:04:23;99712.75;;;13.56;51.15
37291;BME280;23175;-33.706;151.094;2023-04-01T00:06:55;99715.85;;;15.73;49.15
37291;BME280;23175;-33.706;151.094;2023-04-01T00:09:25;99718.61;;;14.81;50.05
37291;BME280;23175;-33.706;151.094;2023-04-01T00:11:55;99723.56;;;15.11;49.43
37291;BME280;23175;-33.706;151.094;2023-04-01T00:14:25;99732.22;;;13.25;53.66
37291;BME280;23175;-33.706;151.094;2023-04-01T00:16:56;99735.23;;;14.65;51.99
37291;BME280;23175;-33.706;151.094;2023-04-01T00:19:25;99748.29;;;14.72;55.46
37291;BME280;23175;-33.706;151.094;2023-04-01T00:21:56;99746.13;;;14.49;56.94
37291;BME280;23175;-33.706;151.094;2023-04-01T00:24:26;99745.16;;;11.82;63.02
37291;BME280;23175;-33.706;151.094;2023-04-01T00:26:56;99743.59;;;13.80;61.11
37291;BME280;23175;-33.706;151.094;2023-04-01T00:29:27;99734.24;;;16.86;55.97
37291;BME280;23175;-33.706;151.094;2023-04-01T00:31:56;99736.43;;;14.83;60.94
37291;BME280;23175;-33.706;151.094;2023-04-01T00:34:27;99739.43;;;16.45;56.55
37291;BME280;23175;-33.706;151.094;2023-04-01T00:36:56;99749.94;;;12.41;66.10
37291;BME280;23175;-33.706;151.094;2023-04-01T00:39:28;99748.76;;;15.68;60.73
37291;BME280;23175;-33.706;151.094;2023-04-01T00:41:59;99751.59;;;12.01;68.20
37291;BME280;23175;-33.706;151.094;2023-04-01T00:44:32;99741.56;;;15.88;58.02
37291;BME280;23175;-33.706;151.094;2023-04-01T00:47:02;99746.40;;;13.74;64.06
37291;BME280;23175;-33.706;151.094;2023-04-01T00:49:35;99744.75;;;12.20;66.14
37291;BME280;23175;-33.706;151.094;2023-04-01T00:52:07;99739.96;;;14.74;59.79
37291;BME280;23175;-33.706;151.094;2023-04-01T00:54:39;99742.76;;;13.48;63.73
37291;BME280;23175;-33.706;151.094;2023-04-01T00:57:14;99740.74;;;15.77;58.94
37291;BME280;23175;-33.706;151.094;2023-04-01T00:59:47;99744.41;;;13.01;63.49
37291;BME280;23175;-33.706;151.094;2023-04-01T01:02:18;99751.35;;;13.59;63.98
37291;BME280;23175;-33.706;151.094;2023-04-01T01:04:49;99748.31;;;15.30;61.34
37291;BME280;23175;-33.706;151.094;2023-04-01T01:07:27;99749.98;;;13.92;64.16
37291;BME280;23175;-33.706;151.094;2023-04-01T01:10:07;99750.72;;;14.32;63.84
37291;BME280;23175;-33.706;151.094;2023-04-01T01:12:48;99747.99;;;13.95;63.54
37291;BME280;23175;-33.706;151.094;2023-04-01T01:15:22;99746.96;;;12.10;67.02
37291;BME280;23175;-33.706;151.094;2023-04-01T01:18:00;99752.49;;;12.76;66.18
37291;BME280;23175;-33.706;151.094;2023-04-01T01:20:42;99750.53;;;15.40;60.45
37291;BME280;23175;-33.706;151.094;2023-04-01T01:23:56;99752.58;;;11.25;70.05
37291;BME280;23175;-33.706;151.094;2023-04-01T01:26:41;99749.73;;;12.29;69.00
37291;BME280;23175;-33.706;151.094;2023-04-01T01:29:40;99745.05;;;14.80;61.45
37291;BME280;23175;-33.706;151.094;2023-04-01T01:32:18;99747.34;;;13.03;65.96
37291;BME280;23175;-33.706;151.094;2023-04-01T01:37:28;99751.50;;;13.30;66.05
37291;BME280;23175;-33.706;151.094;2023-04-01T01:40:09;99752.44;;;13.49;67.53
37291;BME280;23175;-33.706;151.094;2023-04-01T01:42:43;99757.39;;;12.23;69.71
37291;BME280;23175;-33.706;151.094;2023-04-01T01:45:16;99751.86;;;12.88;67.74
37291;BME280;23175;-33.706;151.094;2023-04-01T01:47:49;99759.41;;;11.74;72.29
37291;BME280;23175;-33.706;151.094;2023-04-01T01:50:20;99755.04;;;10.34;73.65
37291;BME280;23175;-33.706;151.094;2023-04-01T01:52:51;99754.68;;;13.31;67.13
37291;BME280;23175;-33.706;151.094;2023-04-01T01:55:31;99748.55;;;15.21;63.40
37291;BME280;23175;-33.706;151.094;2023-04-01T01:58:08;99749.85;;;16.09;62.18
37291;BME280;23175;-33.706;151.094;2023-04-01T02:00:39;99753.22;;;14.76;64.27
37291;BME280;23175;-33.706;151.094;2023-04-01T02:03:12;99755.05;;;12.44;67.50
37291;BME280;23175;-33.706;151.094;2023-04-01T02:05:43;99746.08;;;14.65;63.35
37291;BME280;23175;-33.706;151.094;2023-04-01T02:08:18;99743.79;;;13.44;63.90
37291;BME280;23175;-33.706;151.094;2023-04-01T02:10:55;99743.38;;;14.10;64.70
37291;BME280;23175;-33.706;151.094;2023-04-01T02:13:31;99740.93;;;14.89;61.77
37291;BME280;23175;-33.706;151.094;2023-04-01T02:16:05;99736.57;;;14.50;64.15
37291;BME280;23175;-33.706;151.094;2023-04-01T02:18:36;99734.64;;;15.99;60.14
37291;BME280;23175;-33.706;151.094;2023-04-01T02:21:08;99729.74;;;15.31;59.68
37291;BME280;23175;-33.706;151.094;2023-04-01T02:23:39;99730.31;;;12.92;65.02
37291;BME280;23175;-33.706;151.094;2023-04-01T02:26:11;99727.06;;;10.75;69.06
37291;BME280;23175;-33.706;151.094;2023-04-01T02:28:43;99723.82;;;12.46;65.08
37291;BME280;23175;-33.706;151.094;2023-04-01T02:31:16;99723.23;;;14.48;61.32
37291;BME280;23175;-33.706;151.094;2023-04-01T02:33:46;99720.33;;;15.85;59.29
37291;BME280;23175;-33.706;151.094;2023-04-01T02:36:17;99723.55;;;12.73;65.56
37291;BME280;23175;-33.706;151.094;2023-04-01T02:38:48;99719.33;;;13.76;63.40
37291;BME280;23175;-33.706;151.094;2023-04-01T02:41:19;99717.63;;;14.40;62.57
37291;BME280;23175;-33.706;151.094;2023-04-01T02:43:50;99716.98;;;16.45;58.16
37291;BME280;23175;-33.706;151.094;2023-04-01T02:46:20;99722.15;;;12.96;66.23
37291;BME280;23175;-33.706;151.094;2023-04-01T02:48:49;99723.78;;;13.30;65.57
37291;BME280;23175;-33.706;151.094;2023-04-01T02:51:19;99720.69;;;10.08;71.57
37291;BME280;23175;-33.706;151.094;2023-04-01T02:53:49;99718.96;;;13.60;65.07
37291;BME280;23175;-33.706;151.094;2023-04-01T02:56:19;99719.32;;;11.52;69.60
37291;BME280;23175;-33.706;151.094;2023-04-01T02:58:48;99716.15;;;13.52;65.62
37291;BME280;23175;-33.706;151.094;2023-04-01T03:01:18;99719.15;;;12.76;66.71
37291;BME280;23175;-33.706;151.094;2023-04-01T03:03:49;99722.40;;;12.13;69.10
37291;BME280;23175;-33.706;151.094;2023-04-01T03:06:19;99715.83;;;13.16;65.34
37291;BME280;23175;-33.706;151.094;2023-04-01T03:08:50;99717.78;;;14.68;64.25
37291;BME280;23175;-33.706;151.094;2023-04-01T03:11:20;99721.22;;;13.13;66.82
37291;BME280;23175;-33.706;151.094;2023-04-01T03:13:50;99727.52;;;12.07;68.92
37291;BME280;23175;-33.706;151.094;2023-04-01T03:16:20;99721.42;;;14.19;64.26
37291;BME280;23175;-33.706;151.094;2023-04-01T03:18:50;99719.34;;;13.41;65.12
37291;BME280;23175;-33.706;151.094;2023-04-01T03:21:21;99722.89;;;13.89;64.37
37291;BME280;23175;-33.706;151.094;2023-04-01T03:23:52;99727.81;;;12.07;68.96
37291;BME280;23175;-33.706;151.094;2023-04-01T03:26:23;99731.63;;;12.86;66.63
37291;BME280;23175;-33.706;151.094;2023-04-01T03:28:54;99736.81;;;10.92;69.90
37291;BME280;23175;-33.706;151.094;2023-04-01T03:31:24;99743.56;;;13.74;64.05
37291;BME280;23175;-33.706;151.094;2023-04-01T03:33:54;99743.06;;;11.55;71.69
37291;BME280;23175;-33.706;151.094;2023-04-01T03:36:24;99738.58;;;11.60;70.35
37291;BME280;23175;-33.706;151.094;2023-04-01T03:38:55;99735.15;;;14.68;63.66
37291;BME280;23175;-33.706;151.094;2023-04-01T03:41:24;99740.32;;;12.57;66.88
37291;BME280;23175;-33.706;151.094;2023-04-01T03:43:55;99740.90;;;12.31;68.11
37291;BME280;23175;-33.706;151.094;2023-04-01T03:46:25;99739.55;;;13.86;65.10
37291;BME280;23175;-33.706;151.094;2023-04-01T03:48:56;99739.72;;;13.16;66.59
37291;BME280;23175;-33.706;151.094;2023-04-01T03:51:26;99734.33;;;15.35;60.79
37291;BME280;23175;-33.706;151.094;2023-04-01T03:53:55;99738.98;;;12.30;65.72
37291;BME280;23175;-33.706;151.094;2023-04-01T03:56:25;99739.70;;;14.92;61.82
37291;BME280;23175;-33.706;151.094;2023-04-01T03:58:56;99739.29;;;12.76;66.53
37291;BME280;23175;-33.706;151.094;2023-04-01T04:01:27;99729.55;;;14.02;63.30
37291;BME280;23175;-33.706;151.094;2023-04-01T04:03:57;99730.26;;;14.33;62.21
37291;BME280;23175;-33.706;151.094;2023-04-01T04:06:28;99735.43;;;12.35;67.12
37291;BME280;23175;-33.706;151.094;2023-04-01T04:08:59;99733.28;;;14.86;60.93
37291;BME280;23175;-33.706;151.094;2023-04-01T04:11:32;99736.30;;;13.24;65.28
37291;BME280;23175;-33.706;151.094;2023-04-01T04:14:02;99736.55;;;13.31;65.83
37291;BME280;23175;-33.706;151.094;2023-04-01T04:16:32;99728.71;;;16.25;58.55
37291;BME280;23175;-33.706;151.094;2023-04-01T04:19:04;99733.45;;;14.91;60.94
37291;BME280;23175;-33.706;151.094;2023-04-01T04:21:34;99738.66;;;13.20;64.87
37291;BME280;23175;-33.706;151.094;2023-04-01T04:24:05;99734.27;;;15.73;59.86
37291;BME280;23175;-33.706;151.094;2023-04-01T04:26:36;99737.55;;;10.81;69.55
37291;BME280;23175;-33.706;151.094;2023-04-01T04:29:07;99732.70;;;16.06;59.22
37291;BME280;23175;-33.706;151.094;2023-04-01T04:31:37;99729.55;;;16.05;58.30
37291;BME280;23175;-33.706;151.094;2023-04-01T04:34:08;99728.12;;;17.53;55.66
37291;BME280;23175;-33.706;151.094;2023-04-01T04:36:38;99729.66;;;17.62;54.98
37291;BME280;23175;-33.706;151.094;2023-04-01T04:39:08;99728.74;;;15.09;60.46
37291;BME280;23175;-33.706;151.094;2023-04-01T04:41:39;99728.19;;;14.61;61.37
37291;BME280;23175;-33.706;151.094;2023-04-01T04:44:10;99725.81;;;13.34;64.25
37291;BME280;23175;-33.706;151.094;2023-04-01T04:46:40;99721.58;;;17.05;55.90
37291;BME280;23175;-33.706;151.094;2023-04-01T04:49:10;99727.08;;;15.27;59.71
37291;BME280;23175;-33.706;151.094;2023-04-01T04:51:41;99729.78;;;15.16;59.08
37291;BME280;23175;-33.706;151.094;2023-04-01T04:54:17;99743.09;;;13.88;62.88
37291;BME280;23175;-33.706;151.094;2023-04-01T04:56:47;99746.33;;;11.93;67.24
37291;BME280;23175;-33.706;151.094;2023-04-01T04:59:17;99745.95;;;12.92;64.15
37291;BME280;23175;-33.706;151.094;2023-04-01T05:01:46;99746.60;;;13.51;64.20
37291;BME280;23175;-33.706;151.094;2023-04-01T05:04:17;99744.02;;;13.63;62.93
37291;BME280;23175;-33.706;151.094;2023-04-01T05:06:47;99744.23;;;12.49;65.18
37291;BME280;23175;-33.706;151.094;2023-04-01T05:09:20;99740.69;;;13.87;62.30
37291;BME280;23175;-33.706;151.094;2023-04-01T05:11:50;99741.28;;;14.01;65.06
37291;BME280;23175;-33.706;151.094;2023-04-01T05:14:19;99741.49;;;13.40;65.57
37291;BME280;23175;-33.706;151.094;2023-04-01T05:16:49;99744.12;;;13.68;63.96
37291;BME280;23175;-33.706;151.094;2023-04-01T05:19:19;99743.63;;;12.80;63.11
37291;BME280;23175;-33.706;151.094;2023-04-01T05:21:48;99740.73;;;14.63;61.17
37291;BME280;23175;-33.706;151.094;2023-04-01T05:24:18;99740.48;;;13.80;61.90
37291;BME280;23175;-33.706;151.094;2023-04-01T05:26:48;99741.09;;;14.08;62.07
37291;BME280;23175;-33.706;151.094;2023-04-01T05:29:18;99739.93;;;14.19;60.86
37291;BME280;23175;-33.706;151.094;2023-04-01T05:31:48;99741.71;;;14.22;62.02
37291;BME280;23175;-33.706;151.094;2023-04-01T05:34:18;99744.68;;;14.46;60.98
37291;BME280;23175;-33.706;151.094;2023-04-01T05:36:48;99741.65;;;13.22;62.90
37291;BME280;23175;-33.706;151.094;2023-04-01T05:39:18;99742.59;;;11.46;66.44
37291;BME280;23175;-33.706;151.094;2023-04-01T05:41:48;99739.74;;;15.56;59.66
37291;BME280;23175;-33.706;151.094;2023-04-01T05:44:17;99739.01;;;14.80;59.56
37291;BME280;23175;-33.706;151.094;2023-04-01T05:46:48;99732.71;;;14.32;60.73
37291;BME280;23175;-33.706;151.094;2023-04-01T05:49:18;99728.33;;;15.21;58.11
37291;BME280;23175;-33.706;151.094;2023-04-01T05:51:48;99725.17;;;16.98;55.33
37291;BME280;23175;-33.706;151.094;2023-04-01T05:54:18;99728.66;;;15.62;57.00
37291;BME280;23175;-33.706;151.094;2023-04-01T05:56:48;99731.11;;;15.73;57.14
37291;BME280;23175;-33.706;151.094;2023-04-01T05:59:19;99732.98;;;12.72;62.09
37291;BME280;23175;-33.706;151.094;2023-04-01T06:01:48;99734.18;;;14.26;61.77
37291;BME280;23175;-33.706;151.094;2023-04-01T06:04:19;99734.22;;;16.10;56.97
37291;BME280;23175;-33.706;151.094;2023-04-01T06:06:49;99737.61;;;15.48;57.17
37291;BME280;23175;-33.706;151.094;2023-04-01T06:09:21;99734.79;;;15.96;57.03
37291;BME280;23175;-33.706;151.094;2023-04-01T06:12:12;99734.92;;;14.10;58.90
37291;BME280;23175;-33.706;151.094;2023-04-01T06:14:51;99733.50;;;17.97;53.31
37291;BME280;23175;-33.706;151.094;2023-04-01T06:17:35;99729.65;;;18.03;51.40
37291;BME280;23175;-33.706;151.094;2023-04-01T06:20:16;99730.52;;;14.67;58.49
37291;BME280;23175;-33.706;151.094;2023-04-01T06:23:08;99730.15;;;15.45;56.34
37291;BME280;23175;-33.706;151.094;2023-04-01T06:25:55;99729.90;;;15.63;55.13
37291;BME280;23175;-33.706;151.094;2023-04-01T06:30:25;99728.70;;;15.97;53.58
37291;BME280;23175;-33.706;151.094;2023-04-01T06:33:15;99728.08;;;15.54;53.64
37291;BME280;23175;-33.706;151.094;2023-04-01T06:36:03;99730.79;;;17.19;51.47
37291;BME280;23175;-33.706;151.094;2023-04-01T06:38:46;99735.96;;;14.39;56.40
37291;BME280;23175;-33.706;151.094;2023-04-01T06:42:37;99731.92;;;16.01;52.90
37291;BME280;23175;-33.706;151.094;2023-04-01T06:45:23;99735.10;;;14.14;53.74
37291;BME280;23175;-33.706;151.094;2023-04-01T06:48:08;99733.11;;;16.30;51.02
37291;BME280;23175;-33.706;151.094;2023-04-01T06:50:48;99737.06;;;18.11;47.42
37291;BME280;23175;-33.706;151.094;2023-04-01T06:53:28;99741.19;;;16.80;50.32
37291;BME280;23175;-33.706;151.094;2023-04-01T06:56:06;99746.79;;;17.08;49.34
37291;BME280;23175;-33.706;151.094;2023-04-01T06:58:42;99748.53;;;16.65;52.11
37291;BME280;23175;-33.706;151.094;2023-04-01T07:01:18;99750.01;;;16.29;48.54
37291;BME280;23175;-33.706;151.094;2023-04-01T07:03:58;99750.15;;;17.28;48.47
37291;BME280;23175;-33.706;151.094;2023-04-01T07:06:35;99750.22;;;16.39;49.35
37291;BME280;23175;-33.706;151.094;2023-04-01T07:09:10;99750.75;;;17.37;47.68
37291;BME280;23175;-33.706;151.094;2023-04-01T07:11:43;99755.80;;;17.20;49.48
37291;BME280;23175;-33.706;151.094;2023-04-01T07:14:19;99756.39;;;16.76;47.05
37291;BME280;23175;-33.706;151.094;2023-04-01T07:16:54;99759.22;;;17.15;46.95
37291;BME280;23175;-33.706;151.094;2023-04-01T07:19:31;99760.70;;;15.26;49.58
37291;BME280;23175;-33.706;151.094;2023-04-01T07:22:05;99766.09;;;17.01;48.75
37291;BME280;23175;-33.706;151.094;2023-04-01T07:24:43;99771.42;;;14.23;52.34
37291;BME280;23175;-33.706;151.094;2023-04-01T07:27:15;99770.76;;;15.75;49.95
37291;BME280;23175;-33.706;151.094;2023-04-01T07:29:45;99778.80;;;15.77;50.06
37291;BME280;23175;-33.706;151.094;2023-04-01T07:32:23;99782.18;;;16.78;49.89
37291;BME280;23175;-33.706;151.094;2023-04-01T07:35:03;99787.14;;;17.88;45.90
37291;BME280;23175;-33.706;151.094;2023-04-01T07:37:44;99789.61;;;16.17;50.29
37291;BME280;23175;-33.706;151.094;2023-04-01T07:40:24;99794.95;;;14.52;51.66
37291;BME280;23175;-33.706;151.094;2023-04-01T07:43:10;99797.79;;;17.94;47.06
37291;BME280;23175;-33.706;151.094;2023-04-01T07:45:47;99800.60;;;14.51;49.70
37291;BME280;23175;-33.706;151.094;2023-04-01T07:48:26;99796.95;;;14.57;51.28
37291;BME280;23175;-33.706;151.094;2023-04-01T07:51:10;99800.68;;;13.88;53.98
37291;BME280;23175;-33.706;151.094;2023-04-01T07:53:48;99797.24;;;15.60;50.18
37291;BME280;23175;-33.706;151.094;2023-04-01T07:56:22;99800.28;;;13.43;53.61
37291;BME280;23175;-33.706;151.094;2023-04-01T07:59:02;99799.85;;;14.12;52.68
37291;BME280;23175;-33.706;151.094;2023-04-01T08:01:39;99802.35;;;15.68;51.60
37291;BME280;23175;-33.706;151.094;2023-04-01T08:04:27;99805.32;;;14.70;52.12
37291;BME280;23175;-33.706;151.094;2023-04-01T08:07:10;99810.46;;;12.62;53.87
37291;BME280;23175;-33.706;151.094;2023-04-01T08:09:47;99808.10;;;13.96;52.49
37291;BME280;23175;-33.706;151.094;2023-04-01T08:12:30;99806.84;;;14.41;50.44
37291;BME280;23175;-33.706;151.094;2023-04-01T08:15:10;99813.36;;;13.22;52.50
37291;BME280;23175;-33.706;151.094;2023-04-01T08:17:49;99811.52;;;16.51;47.68
37291;BME280;23175;-33.706;151.094;2023-04-01T08:20:36;99817.80;;;14.21;51.23
37291;BME280;23175;-33.706;151.094;2023-04-01T08:23:12;99817.75;;;15.28;49.49
37291;BME280;23175;-33.706;151.094;2023-04-01T08:25:48;99818.57;;;15.45;49.80
37291;BME280;23175;-33.706;151.094;2023-04-01T08:28:24;99819.23;;;16.03;48.26
37291;BME280;23175;-33.706;151.094;2023-04-01T08:30:58;99823.29;;;15.24;50.47
37291;BME280;23175;-33.706;151.094;2023-04-01T08:33:31;99825.36;;;16.36;46.08
37291;BME280;23175;-33.706;151.094;2023-04-01T08:36:07;99828.13;;;16.98;46.45
37291;BME280;23175;-33.706;151.094;2023-04-01T08:38:42;99831.37;;;17.70;45.61
37291;BME280;23175;-33.706;151.094;2023-04-01T08:41:39;99836.75;;;16.50;46.56
37291;BME280;23175;-33.706;151.094;2023-04-01T08:44:37;99839.25;;;16.57;46.76
37291;BME280;23175;-33.706;151.094;2023-04-01T08:47:26;99839.10;;;17.18;47.32
37291;BME280;23175;-33.706;151.094;2023-04-01T08:50:21;99846.03;;;17.57;45.75
37291;BME280;23175;-33.706;151.094;2023-04-01T08:53:03;99850.02;;;18.48;43.94
37291;BME280;23175;-33.706;151.094;2023-04-01T08:55:54;99854.69;;;18.07;44.46
37291;BME280;23175;-33.706;151.094;2023-04-01T09:00:05;99857.27;;;18.66;44.46
37291;BME280;23175;-33.706;151.094;2023-04-01T09:02:56;99871.46;;;15.29;51.32
37291;BME280;23175;-33.706;151.094;2023-04-01T09:05:45;99869.69;;;17.08;46.87
37291;BME280;23175;-33.706;151.094;2023-04-01T09:08:30;99874.07;;;17.56;46.24
37291;BME280;23175;-33.706;151.094;2023-04-01T09:11:12;99879.02;;;17.36;45.95
37291;BME280;23175;-33.706;151.094;2023-04-01T09:14:04;99881.00;;;17.55;45.80
37291;BME280;23175;-33.706;151.094;2023-04-01T09:16:57;99886.81;;;17.92;43.82
37291;BME280;23175;-33.706;151.094;2023-04-01T09:19:45;99891.03;;;18.43;44.09
37291;BME280;23175;-33.706;151.094;2023-04-01T09:22:25;99895.59;;;18.61;43.55
37291;BME280;23175;-33.706;151.094;2023-04-01T09:25:22;99899.40;;;18.05;44.66
37291;BME280;23175;-33.706;151.094;2023-04-01T09:28:00;99899.56;;;18.28;44.86
37291;BME280;23175;-33.706;151.094;2023-04-01T09:30:48;99904.78;;;18.33;45.45
37291;BME280;23175;-33.706;151.094;2023-04-01T09:36:07;99911.49;;;18.68;43.61
37291;BME280;23175;-33.706;151.094;2023-04-01T09:38:53;99913.43;;;18.68;43.63
37291;BME280;23175;-33.706;151.094;2023-04-01T09:41:31;99914.59;;;19.00;44.44
37291;BME280;23175;-33.706;151.094;2023-04-01T09:44:06;99917.26;;;18.80;44.29
37291;BME280;23175;-33.706;151.094;2023-04-01T09:46:54;99918.09;;;18.41;44.35
37291;BME280;23175;-33.706;151.094;2023-04-01T09:49:50;99921.05;;;18.33;43.92
37291;BME280;23175;-33.706;151.094;2023-04-01T09:52:33;99925.18;;;18.68;43.49
37291;BME280;23175;-33.706;151.094;2023-04-01T09:56:51;99925.75;;;18.80;43.29
37291;BME280;23175;-33.706;151.094;2023-04-01T10:01:19;99939.67;;;18.23;44.56
37291;BME280;23175;-33.706;151.094;2023-04-01T10:10:57;99955.20;;;17.64;44.65
37291;BME280;23175;-33.706;151.094;2023-04-01T10:14:17;99959.52;;;18.42;45.21
37291;BME280;23175;-33.706;151.094;2023-04-01T10:17:29;99961.72;;;18.36;45.28
37291;BME280;23175;-33.706;151.094;2023-04-01T10:20:22;99965.09;;;17.73;45.53
37291;BME280;23175;-33.706;151.094;2023-04-01T10:23:26;99970.91;;;18.32;45.53
37291;BME280;23175;-33.706;151.094;2023-04-01T10:26:48;99970.64;;;17.58;46.05
37291;BME280;23175;-33.706;151.094;2023-04-01T10:30:18;99969.74;;;17.97;45.81
37291;BME280;23175;-33.706;151.094;2023-04-01T10:37:32;99968.07;;;17.64;46.12
37291;BME280;23175;-33.706;151.094;2023-04-01T10:40:33;99970.66;;;18.14;45.48
37291;BME280;23175;-33.706;151.094;2023-04-01T10:44:09;99972.72;;;18.12;45.75
37291;BME280;23175;-33.706;151.094;2023-04-01T10:47:10;99974.61;;;17.59;46.13
37291;BME280;23175;-33.706;151.094;2023-04-01T10:50:11;99972.76;;;17.51;45.70
37291;BME280;23175;-33.706;151.094;2023-04-01T10:53:23;99973.85;;;17.17;46.37
37291;BME280;23175;-33.706;151.094;2023-04-01T10:57:17;99975.42;;;17.50;46.14
37291;BME280;23175;-33.706;151.094;2023-04-01T11:02:28;99976.07;;;16.97;46.85
37291;BME280;23175;-33.706;151.094;2023-04-01T11:05:34;99975.32;;;16.53;46.83
37291;BME280;23175;-33.706;151.094;2023-04-01T11:08:32;99971.61;;;17.25;47.45
37291;BME280;23175;-33.706;151.094;2023-04-01T11:11:24;99967.45;;;17.31;46.58
37291;BME280;23175;-33.706;151.094;2023-04-01T11:19:38;99970.84;;;17.23;46.11
37291;BME280;23175;-33.706;151.094;2023-04-01T11:26:10;99974.51;;;17.31;46.13
37291;BME280;23175;-33.706;151.094;2023-04-01T11:28:57;99977.55;;;16.80;45.58
37291;BME280;23175;-33.706;151.094;2023-04-01T11:31:42;99979.84;;;16.07;47.19
37291;BME280;23175;-33.706;151.094;2023-04-01T11:34:28;99978.96;;;16.78;46.11
37291;BME280;23175;-33.706;151.094;2023-04-01T11:37:10;99980.45;;;17.25;45.49
37291;BME280;23175;-33.706;151.094;2023-04-01T11:39:50;99985.06;;;16.88;45.48
37291;BME280;23175;-33.706;151.094;2023-04-01T11:42:34;99985.57;;;17.45;45.84
37291;BME280;23175;-33.706;151.094;2023-04-01T11:45:20;99986.63;;;16.85;45.53
37291;BME280;23175;-33.706;151.094;2023-04-01T11:48:07;99985.49;;;15.34;48.78
37291;BME280;23175;-33.706;151.094;2023-04-01T11:50:59;99986.22;;;15.87;48.15
37291;BME280;23175;-33.706;151.094;2023-04-01T11:53:42;99986.14;;;16.44;46.79
37291;BME280;23175;-33.706;151.094;2023-04-01T11:56:29;99985.13;;;16.15;47.57
37291;BME280;23175;-33.706;151.094;2023-04-01T11:59:27;99983.82;;;16.59;47.51
37291;BME280;23175;-33.706;151.094;2023-04-01T12:02:11;99985.50;;;17.04;46.96
37291;BME280;23175;-33.706;151.094;2023-04-01T12:04:59;99981.46;;;16.88;47.26
37291;BME280;23175;-33.706;151.094;2023-04-01T12:08:09;99978.85;;;16.67;47.00
37291;BME280;23175;-33.706;151.094;2023-04-01T12:10:46;99979.21;;;15.82;49.37
37291;BME280;23175;-33.706;151.094;2023-04-01T12:13:33;99978.54;;;16.80;47.24
37291;BME280;23175;-33.706;151.094;2023-04-01T12:16:21;99980.40;;;16.83;46.28
37291;BME280;23175;-33.706;151.094;2023-04-01T12:18:57;99986.95;;;15.03;49.62
37291;BME280;23175;-33.706;151.094;2023-04-01T12:21:34;99985.51;;;15.53;48.50
37291;BME280;23175;-33.706;151.094;2023-04-01T12:24:47;99990.43;;;15.10;49.38
37291;BME280;23175;-33.706;151.094;2023-04-01T12:27:32;99989.43;;;16.25;47.54
37291;BME280;23175;-33.706;151.094;2023-04-01T12:30:29;99988.46;;;15.72;47.76
37291;BME280;23175;-33.706;151.094;2023-04-01T12:33:27;99985.33;;;15.23;49.52
37291;BME280;23175;-33.706;151.094;2023-04-01T12:36:11;99981.47;;;15.26;49.82
37291;BME280;23175;-33.706;151.094;2023-04-01T12:38:58;99975.34;;;12.38;54.32
37291;BME280;23175;-33.706;151.094;2023-04-01T12:41:42;99977.18;;;15.35;49.69
37291;BME280;23175;-33.706;151.094;2023-04-01T12:45:02;99982.60;;;15.30;49.02
37291;BME280;23175;-33.706;151.094;2023-04-01T12:49:28;99978.32;;;16.22;48.03
37291;BME280;23175;-33.706;151.094;2023-04-01T12:52:10;99979.33;;;15.11;49.19
37291;BME280;23175;-33.706;151.094;2023-04-01T12:55:05;99976.98;;;15.57;47.75
37291;BME280;23175;-33.706;151.094;2023-04-01T12:57:59;99976.74;;;16.02;46.77
37291;BME280;23175;-33.706;151.094;2023-04-01T13:00:46;99974.19;;;16.93;46.06
37291;BME280;23175;-33.706;151.094;2023-04-01T13:03:32;99975.24;;;16.16;47.02
37291;BME280;23175;-33.706;151.094;2023-04-01T13:06:24;99982.91;;;16.05;48.13
37291;BME280;23175;-33.706;151.094;2023-04-01T13:09:06;99984.83;;;16.24;47.22
37291;BME280;23175;-33.706;151.094;2023-04-01T13:11:49;99989.13;;;14.22;50.16
37291;BME280;23175;-33.706;151.094;2023-04-01T13:14:38;99987.89;;;16.29;46.75
37291;BME280;23175;-33.706;151.094;2023-04-01T13:17:16;99989.96;;;16.49;46.37
37291;BME280;23175;-33.706;151.094;2023-04-01T13:19:53;99988.21;;;16.62;46.88
37291;BME280;23175;-33.706;151.094;2023-04-01T13:22:30;99984.72;;;14.48;48.89
37291;BME280;23175;-33.706;151.094;2023-04-01T13:25:10;99989.00;;;15.20;48.97
37291;BME280;23175;-33.706;151.094;2023-04-01T13:27:48;99981.18;;;16.60;45.90
37291;BME280;23175;-33.706;151.094;2023-04-01T13:30:26;99983.21;;;15.28;47.05
37291;BME280;23175;-33.706;151.094;2023-04-01T13:33:04;99979.64;;;16.13;45.82
37291;BME280;23175;-33.706;151.094;2023-04-01T13:35:42;99983.60;;;16.16;46.60
37291;BME280;23175;-33.706;151.094;2023-04-01T13:38:46;99981.30;;;15.39;47.70
37291;BME280;23175;-33.706;151.094;2023-04-01T13:41:32;99981.63;;;15.27;48.11
37291;BME280;23175;-33.706;151.094;2023-04-01T13:44:11;99973.61;;;16.60;46.68
37291;BME280;23175;-33.706;151.094;2023-04-01T13:46:57;99977.93;;;15.40;48.99
37291;BME280;23175;-33.706;151.094;2023-04-01T13:50:18;99975.04;;;13.34;51.11
37291;BME280;23175;-33.706;151.094;2023-04-01T13:53:07;99973.56;;;14.59;49.80
37291;BME280;23175;-33.706;151.094;2023-04-01T13:55:54;99977.32;;;14.88;49.11
37291;BME280;23175;-33.706;151.094;2023-04-01T13:58:38;99976.56;;;14.42;50.39
37291;BME280;23175;-33.706;151.094;2023-04-01T14:01:17;99974.19;;;13.23;52.38
37291;BME280;23175;-33.706;151.094;2023-04-01T14:04:14;99977.77;;;15.14;48.63
37291;BME280;23175;-33.706;151.094;2023-04-01T14:07:02;99976.05;;;14.60;50.15
37291;BME280;23175;-33.706;151.094;2023-04-01T14:09:51;99973.67;;;15.38;49.72
37291;BME280;23175;-33.706;151.094;2023-04-01T14:12:33;99974.33;;;15.73;48.56